Time;durP1;ratioP1;P1;durP2;ratioP2;P2;SDS_P1;SDS_P2;PMS_P1;PMS_P2;Temp;Humidity;BMP_temperature;BMP_pressure;BME280_temperature;BME280_humidity;BME280_pressure;Samples;Min_cycle;Max_cycle;Signal;HPM_P1;HPM_P2
2022/01/21 00:01:07;;;;;;;12.98;2.22;;;;;;;;;;5016339;28;20026;-48
2022/01/21 00:03:33;;;;;;;10.80;2.30;;;;;;;;;;5016160;28;20085;-48
2022/01/21 00:05:58;;;;;;;5.38;1.80;;;;;;;;;;5016482;28;20083;-48
2022/01/21 00:08:24;;;;;;;13.35;1.98;;;;;;;;;;5016284;28;20108;-49
2022/01/21 00:10:50;;;;;;;7.70;1.60;;;;;;;;;;5016425;28;20026;-47
2022/01/21 00:13:22;;;;;;;13.80;2.28;;;;;;;;;;5016254;28;20095;-50
2022/01/21 00:15:47;;;;;;;10.77;2.08;;;;;;;;;;5016310;28;20097;-50
2022/01/21 00:18:13;;;;;;;15.00;2.08;;;;;;;;;;5016164;28;20049;-48
2022/01/21 00:31:50;;;;;;;7.10;1.65;;;;;;;;;;5016328;28;20045;-48
2022/01/21 00:34:15;;;;;;;10.93;1.60;;;;;;;;;;5015842;28;20389;-50
2022/01/21 00:36:40;;;;;;;8.80;2.20;;;;;;;;;;5015895;28;20381;-47
2022/01/21 00:39:06;;;;;;;5.53;1.40;;;;;;;;;;5015872;28;20018;-49
2022/01/21 00:41:36;;;;;;;15.77;2.47;;;;;;;;;;5015791;28;20022;-49
2022/01/21 00:44:01;;;;;;;13.88;1.70;;;;;;;;;;5015997;28;20084;-48
2022/01/21 00:46:26;;;;;;;7.22;1.65;;;;;;;;;;5015769;28;20022;-47
2022/01/21 00:48:53;;;;;;;8.95;1.90;;;;;;;;;;5015579;28;20021;-47
2022/01/21 00:51:18;;;;;;;8.57;1.65;;;;;;;;;;5015485;28;20025;-48
2022/01/21 00:53:44;;;;;;;10.52;1.63;;;;;;;;;;5015615;28;20531;-48
2022/01/21 00:56:09;;;;;;;13.55;2.03;;;;;;;;;;5015411;28;20037;-49
2022/01/21 00:58:34;;;;;;;10.18;2.08;;;;;;;;;;5015569;28;20022;-48
2022/01/21 01:00:59;;;;;;;8.60;2.13;;;;;;;;;;5015265;28;20022;-50
2022/01/21 01:03:25;;;;;;;10.00;2.28;;;;;;;;;;5014617;28;20156;-50
2022/01/21 01:05:51;;;;;;;19.65;2.38;;;;;;;;;;5015096;28;20080;-48
2022/01/21 01:08:17;;;;;;;13.02;2.20;;;;;;;;;;5015230;28;20389;-50
2022/01/21 01:21:16;;;;;;;9.52;1.88;;;;;;;;;;5015201;28;20397;-48
2022/01/21 01:28:59;;;;;;;10.48;1.95;;;;;;;;;;5015158;28;20037;-48
2022/01/21 01:31:24;;;;;;;12.93;1.90;;;;;;;;;;5014976;28;20400;-48
2022/01/21 01:33:49;;;;;;;21.00;2.70;;;;;;;;;;5014817;28;20492;-48
2022/01/21 01:36:15;;;;;;;11.00;2.10;;;;;;;;;;5014874;28;20420;-47
2022/01/21 01:39:06;;;;;;;12.82;2.00;;;;;;;;;;5014721;28;20026;-48
2022/01/21 01:41:34;;;;;;;15.27;2.33;;;;;;;;;;5014702;28;20025;-48
2022/01/21 01:49:32;;;;;;;9.15;1.85;;;;;;;;;;5014920;28;20084;-50
2022/01/21 01:51:58;;;;;;;11.13;1.63;;;;;;;;;;5014604;28;20076;-50
2022/01/21 01:54:25;;;;;;;7.18;1.67;;;;;;;;;;5014588;28;20017;-47
2022/01/21 01:56:52;;;;;;;12.73;1.60;;;;;;;;;;5014341;28;20105;-48
2022/01/21 01:59:17;;;;;;;18.67;1.67;;;;;;;;;;5014438;28;20014;-50
2022/01/21 02:01:42;;;;;;;13.65;1.73;;;;;;;;;;5014283;28;20036;-47
2022/01/21 02:04:07;;;;;;;4.60;1.38;;;;;;;;;;5014122;28;20042;-47
2022/01/21 02:06:33;;;;;;;8.70;1.80;;;;;;;;;;5014287;28;20033;-46
2022/01/21 02:08:59;;;;;;;16.77;1.48;;;;;;;;;;5014348;28;20117;-47
2022/01/21 02:11:24;;;;;;;7.80;1.85;;;;;;;;;;5014460;28;20030;-47
2022/01/21 02:13:56;;;;;;;10.05;2.03;;;;;;;;;;5014202;28;20029;-50
2022/01/21 02:21:39;;;;;;;10.30;1.30;;;;;;;;;;5014379;28;20029;-48
2022/01/21 02:24:10;;;;;;;5.82;1.08;;;;;;;;;;5014197;28;20049;-49
2022/01/21 02:26:35;;;;;;;6.07;1.00;;;;;;;;;;5015360;28;20373;-47
2022/01/21 02:29:03;;;;;;;5.57;1.15;;;;;;;;;;5014176;28;20022;-47
2022/01/21 02:31:29;;;;;;;4.93;1.27;;;;;;;;;;5014402;28;20026;-47
2022/01/21 02:33:54;;;;;;;5.15;0.90;;;;;;;;;;5014348;28;20129;-47
2022/01/21 02:36:19;;;;;;;8.65;1.63;;;;;;;;;;5014048;28;20018;-47
2022/01/21 02:38:44;;;;;;;8.02;1.20;;;;;;;;;;5014111;28;20022;-47
2022/01/21 02:41:10;;;;;;;8.00;1.92;;;;;;;;;;5014013;28;20080;-47
2022/01/21 02:43:35;;;;;;;9.63;1.42;;;;;;;;;;5014145;28;20049;-48
2022/01/21 02:46:05;;;;;;;8.52;1.33;;;;;;;;;;5013971;28;20018;-49
2022/01/21 02:48:34;;;;;;;10.38;1.67;;;;;;;;;;5013948;28;20173;-48
2022/01/21 02:51:00;;;;;;;4.68;1.23;;;;;;;;;;5014031;28;20026;-48
2022/01/21 02:53:37;;;;;;;11.07;1.52;;;;;;;;;;5013949;28;20499;-47
2022/01/21 02:56:02;;;;;;;7.45;1.48;;;;;;;;;;5013945;28;20064;-49
2022/01/21 02:58:28;;;;;;;3.72;0.93;;;;;;;;;;5013860;28;20057;-47
2022/01/21 03:00:53;;;;;;;9.32;1.58;;;;;;;;;;5013899;28;20504;-49
2022/01/21 03:03:18;;;;;;;7.80;1.50;;;;;;;;;;5013720;28;20030;-48
2022/01/21 03:05:43;;;;;;;9.48;1.52;;;;;;;;;;5013616;28;20042;-46
2022/01/21 03:08:09;;;;;;;19.05;1.80;;;;;;;;;;5013819;28;20113;-47
2022/01/21 03:10:34;;;;;;;10.18;2.08;;;;;;;;;;5013786;28;20024;-47
2022/01/21 03:12:59;;;;;;;9.20;1.75;;;;;;;;;;5013772;28;20026;-49
2022/01/21 03:15:24;;;;;;;7.53;1.50;;;;;;;;;;5013841;28;20026;-47
2022/01/21 03:17:50;;;;;;;9.45;1.40;;;;;;;;;;5013661;28;20022;-49
2022/01/21 03:20:15;;;;;;;3.58;1.13;;;;;;;;;;5013612;28;20022;-48
2022/01/21 03:22:40;;;;;;;11.45;2.20;;;;;;;;;;4996096;28;20572;-50
2022/01/21 03:25:06;;;;;;;6.68;1.65;;;;;;;;;;5013629;28;20033;-47
2022/01/21 03:27:32;;;;;;;7.05;1.20;;;;;;;;;;5015361;28;20029;-47
2022/01/21 03:29:58;;;;;;;9.27;2.47;;;;;;;;;;5016990;28;20469;-48
2022/01/21 03:32:23;;;;;;;8.18;1.65;;;;;;;;;;4999723;28;20049;-48
2022/01/21 03:34:49;;;;;;;11.13;2.95;;;;;;;;;;5017018;28;20109;-49
2022/01/21 03:37:14;;;;;;;7.93;2.10;;;;;;;;;;5016878;28;20040;-47
2022/01/21 03:39:39;;;;;;;7.72;1.58;;;;;;;;;;5016922;28;20018;-49
2022/01/21 03:42:04;;;;;;;13.35;2.38;;;;;;;;;;5016943;28;20033;-47
2022/01/21 03:44:30;;;;;;;15.27;2.55;;;;;;;;;;5016816;28;20026;-47
2022/01/21 03:46:55;;;;;;;5.75;2.10;;;;;;;;;;5016842;28;20025;-48
2022/01/21 03:49:21;;;;;;;13.23;3.10;;;;;;;;;;5016797;28;20093;-47
2022/01/21 03:51:46;;;;;;;12.63;3.15;;;;;;;;;;5016706;28;20018;-48
2022/01/21 03:54:11;;;;;;;15.48;4.18;;;;;;;;;;5016703;28;20057;-47
2022/01/21 03:56:39;;;;;;;9.07;2.58;;;;;;;;;;5016576;28;20532;-47
2022/01/21 03:59:04;;;;;;;11.15;2.80;;;;;;;;;;5016701;28;20026;-48
2022/01/21 04:01:29;;;;;;;13.90;3.35;;;;;;;;;;5016474;28;20499;-50
2022/01/21 04:03:55;;;;;;;15.55;3.28;;;;;;;;;;5016298;28;20492;-48
2022/01/21 04:06:20;;;;;;;12.10;2.55;;;;;;;;;;5016356;28;20046;-47
2022/01/21 04:08:45;;;;;;;10.23;2.95;;;;;;;;;;5016437;28;20053;-50
2022/01/21 04:11:10;;;;;;;7.75;2.15;;;;;;;;;;5016418;28;20029;-48
2022/01/21 04:13:36;;;;;;;8.23;2.35;;;;;;;;;;5016525;28;20022;-50
2022/01/21 04:16:01;;;;;;;10.35;2.50;;;;;;;;;;5016317;28;20028;-47
2022/01/21 04:18:28;;;;;;;10.30;2.45;;;;;;;;;;5016355;28;20030;-48
2022/01/21 04:20:53;;;;;;;13.35;2.92;;;;;;;;;;5016194;28;20026;-48
2022/01/21 04:23:20;;;;;;;8.73;2.90;;;;;;;;;;5016180;28;20021;-48
2022/01/21 04:25:46;;;;;;;15.38;3.10;;;;;;;;;;5016209;28;20021;-48
2022/01/21 04:28:11;;;;;;;12.45;4.47;;;;;;;;;;5016169;28;20114;-47
2022/01/21 04:30:37;;;;;;;14.02;3.53;;;;;;;;;;5015905;28;20060;-47
2022/01/21 04:33:03;;;;;;;12.75;3.33;;;;;;;;;;5015958;28;20053;-48
2022/01/21 04:35:28;;;;;;;9.40;3.60;;;;;;;;;;4998359;28;20049;-48
2022/01/21 04:38:00;;;;;;;12.35;2.88;;;;;;;;;;5015563;28;20022;-49
2022/01/21 04:40:30;;;;;;;10.90;2.88;;;;;;;;;;5015330;28;20018;-51
2022/01/21 04:48:23;;;;;;;6.30;2.50;;;;;;;;;;5016009;28;20033;-49
2022/01/21 04:50:57;;;;;;;16.20;3.03;;;;;;;;;;5015569;28;20029;-49
2022/01/21 04:53:24;;;;;;;11.25;3.03;;;;;;;;;;5015665;28;20026;-49
2022/01/21 04:55:49;;;;;;;15.82;3.50;;;;;;;;;;5015590;28;20029;-49
2022/01/21 04:58:15;;;;;;;13.52;3.90;;;;;;;;;;5015542;28;20022;-48
2022/01/21 05:00:40;;;;;;;20.27;4.32;;;;;;;;;;5015503;28;20079;-48
2022/01/21 05:03:06;;;;;;;16.27;4.85;;;;;;;;;;5016841;28;20022;-48
2022/01/21 05:05:31;;;;;;;11.93;3.58;;;;;;;;;;5015267;28;20497;-47
2022/01/21 05:07:59;;;;;;;11.43;4.15;;;;;;;;;;5015428;28;20018;-47
2022/01/21 05:10:28;;;;;;;11.63;4.25;;;;;;;;;;5015407;28;20097;-47
2022/01/21 05:12:53;;;;;;;14.52;4.57;;;;;;;;;;5015214;28;20033;-48
2022/01/21 05:18:03;;;;;;;15.93;5.05;;;;;;;;;;5015539;28;20165;-48
2022/01/21 05:20:28;;;;;;;15.43;5.57;;;;;;;;;;5015104;28;20148;-48
2022/01/21 05:22:53;;;;;;;13.60;5.60;;;;;;;;;;5015024;28;20524;-48
2022/01/21 05:25:19;;;;;;;19.75;5.63;;;;;;;;;;5014978;28;20377;-48
2022/01/21 05:27:46;;;;;;;18.52;6.90;;;;;;;;;;5021658;28;20033;-49
2022/01/21 05:30:11;;;;;;;16.40;7.35;;;;;;;;;;5014733;28;20096;-48
2022/01/21 05:32:36;;;;;;;13.00;6.65;;;;;;;;;;5034217;28;20025;-48
2022/01/21 05:35:02;;;;;;;15.25;7.05;;;;;;;;;;5034679;28;20067;-48
2022/01/21 05:37:27;;;;;;;14.13;6.88;;;;;;;;;;5020968;28;20030;-48
2022/01/21 05:39:53;;;;;;;16.35;7.35;;;;;;;;;;5014595;28;20025;-48
2022/01/21 05:42:20;;;;;;;16.85;6.55;;;;;;;;;;5014810;28;20010;-47
2022/01/21 05:47:11;;;;;;;14.38;6.30;;;;;;;;;;5025295;28;20017;-49
2022/01/21 05:49:36;;;;;;;6.97;4.13;;;;;;;;;;5034137;28;20536;-51
2022/01/21 05:52:07;;;;;;;17.60;5.28;;;;;;;;;;5034143;28;20033;-48
2022/01/21 05:54:33;;;;;;;17.13;4.65;;;;;;;;;;5034282;28;20101;-48
2022/01/21 05:56:58;;;;;;;12.25;3.22;;;;;;;;;;5025074;28;20049;-48
2022/01/21 05:59:24;;;;;;;11.60;3.60;;;;;;;;;;5014461;28;20022;-48
2022/01/21 06:01:50;;;;;;;10.93;2.55;;;;;;;;;;5014316;28;20021;-48
2022/01/21 06:04:15;;;;;;;8.13;1.98;;;;;;;;;;5014142;28;20026;-49
2022/01/21 06:06:40;;;;;;;18.30;2.42;;;;;;;;;;5020454;28;20022;-48
2022/01/21 06:09:06;;;;;;;6.68;1.83;;;;;;;;;;5034067;28;20017;-49
2022/01/21 06:11:31;;;;;;;11.30;2.30;;;;;;;;;;5033960;28;20037;-50
2022/01/21 06:13:57;;;;;;;6.70;2.28;;;;;;;;;;5034088;28;20028;-48
2022/01/21 06:16:23;;;;;;;11.52;1.58;;;;;;;;;;5033559;28;20021;-48
2022/01/21 06:18:48;;;;;;;11.10;2.15;;;;;;;;;;5033996;28;20033;-48
2022/01/21 06:21:14;;;;;;;3.97;1.50;;;;;;;;;;5033447;28;20021;-49
2022/01/21 06:23:41;;;;;;;5.72;1.38;;;;;;;;;;5018402;28;20031;-48
2022/01/21 06:26:07;;;;;;;14.30;2.20;;;;;;;;;;5014506;28;20025;-48
2022/01/21 06:28:32;;;;;;;7.38;2.00;;;;;;;;;;5015315;28;20468;-54
2022/01/21 06:30:57;;;;;;;6.35;1.50;;;;;;;;;;5014879;28;20010;-52
2022/01/21 06:33:23;;;;;;;7.78;1.65;;;;;;;;;;5012302;28;20032;-51
2022/01/21 06:35:49;;;;;;;10.93;1.83;;;;;;;;;;5012560;28;20084;-52
2022/01/21 06:38:15;;;;;;;8.63;1.85;;;;;;;;;;5014346;28;20030;-49
2022/01/21 06:40:40;;;;;;;9.43;1.65;;;;;;;;;;5015428;28;20049;-52
2022/01/21 06:43:05;;;;;;;8.93;2.50;;;;;;;;;;5013736;28;20100;-52
2022/01/21 06:45:31;;;;;;;9.27;1.90;;;;;;;;;;5014980;28;20072;-50
2022/01/21 06:47:59;;;;;;;5.43;2.30;;;;;;;;;;4992046;28;20057;-51
2022/01/21 06:50:25;;;;;;;6.90;1.88;;;;;;;;;;5010583;28;20022;-51
2022/01/21 06:52:50;;;;;;;13.23;2.50;;;;;;;;;;5013228;28;20036;-51
2022/01/21 06:55:15;;;;;;;15.80;2.78;;;;;;;;;;5013882;28;20034;-53
2022/01/21 06:57:41;;;;;;;6.82;1.77;;;;;;;;;;5009893;28;20017;-54
2022/01/21 07:00:09;;;;;;;5.93;1.75;;;;;;;;;;5005891;28;20022;-53
2022/01/21 07:02:34;;;;;;;8.90;2.30;;;;;;;;;;5002645;28;20022;-52
2022/01/21 07:04:59;;;;;;;14.10;2.30;;;;;;;;;;5010307;28;20046;-53
2022/01/21 07:07:24;;;;;;;7.45;2.33;;;;;;;;;;4992344;28;20107;-53
2022/01/21 07:09:51;;;;;;;6.78;2.50;;;;;;;;;;4993686;28;20111;-53
2022/01/21 07:12:17;;;;;;;9.13;2.97;;;;;;;;;;4984166;28;20033;-52
2022/01/21 07:14:42;;;;;;;8.52;3.22;;;;;;;;;;4974311;28;20030;-51
2022/01/21 07:17:07;;;;;;;6.70;2.78;;;;;;;;;;4948563;28;22056;-52
2022/01/21 07:19:32;;;;;;;9.98;2.95;;;;;;;;;;4929601;28;20033;-52
2022/01/21 07:21:58;;;;;;;11.85;2.80;;;;;;;;;;4901652;28;20038;-52
2022/01/21 07:24:23;;;;;;;14.73;3.08;;;;;;;;;;4854195;28;20079;-51
2022/01/21 07:26:48;;;;;;;6.00;2.83;;;;;;;;;;4859912;28;20518;-53
2022/01/21 07:29:14;;;;;;;12.02;3.00;;;;;;;;;;4886437;28;20070;-54
2022/01/21 07:31:39;;;;;;;12.82;3.03;;;;;;;;;;4891414;28;21770;-51
2022/01/21 07:34:06;;;;;;;11.70;2.97;;;;;;;;;;4921329;28;20049;-53
2022/01/21 07:36:33;;;;;;;8.90;3.10;;;;;;;;;;4920387;28;20747;-51
2022/01/21 07:38:59;;;;;;;12.88;2.63;;;;;;;;;;4925132;28;20576;-52
2022/01/21 07:41:24;;;;;;;11.32;2.92;;;;;;;;;;4923504;28;20034;-53
2022/01/21 07:43:50;;;;;;;10.25;2.75;;;;;;;;;;4933704;28;20160;-53
2022/01/21 07:46:16;;;;;;;12.40;2.90;;;;;;;;;;4936322;28;20018;-53
2022/01/21 07:48:43;;;;;;;12.50;3.50;;;;;;;;;;4933933;28;20057;-51
2022/01/21 07:51:09;;;;;;;8.02;3.00;;;;;;;;;;4930473;28;20030;-53
2022/01/21 07:53:34;;;;;;;12.88;3.53;;;;;;;;;;4938554;28;21086;-53
2022/01/21 07:56:00;;;;;;;17.83;2.85;;;;;;;;;;4938720;28;20078;-52
2022/01/21 07:58:25;;;;;;;16.88;3.45;;;;;;;;;;4932917;28;21591;-53
2022/01/21 08:00:51;;;;;;;12.85;3.92;;;;;;;;;;4912811;28;21684;-55
2022/01/21 08:03:16;;;;;;;18.00;4.13;;;;;;;;;;4908998;28;20034;-54
2022/01/21 08:05:44;;;;;;;12.00;3.75;;;;;;;;;;4863143;28;1445125;-54
2022/01/21 08:08:09;;;;;;;9.80;4.00;;;;;;;;;;4897722;28;20116;-53
2022/01/21 08:10:34;;;;;;;12.77;3.78;;;;;;;;;;4887124;28;21880;-55
2022/01/21 08:13:00;;;;;;;11.80;3.40;;;;;;;;;;4848259;28;20751;-54
2022/01/21 08:15:26;;;;;;;12.50;3.33;;;;;;;;;;4859962;28;20032;-55
2022/01/21 08:17:51;;;;;;;9.40;2.97;;;;;;;;;;4830467;28;22341;-52
2022/01/21 08:20:16;;;;;;;16.65;3.20;;;;;;;;;;4885295;28;21229;-53
2022/01/21 08:22:42;;;;;;;15.43;3.58;;;;;;;;;;4885384;28;21883;-52
2022/01/21 08:25:08;;;;;;;7.57;2.75;;;;;;;;;;4874511;28;20148;-52
2022/01/21 08:27:33;;;;;;;12.23;2.88;;;;;;;;;;4891312;28;20072;-52
2022/01/21 08:29:59;;;;;;;9.45;3.20;;;;;;;;;;4896020;28;20631;-52
2022/01/21 08:32:24;;;;;;;10.57;2.95;;;;;;;;;;4879451;28;20025;-52
2022/01/21 08:34:49;;;;;;;11.52;2.55;;;;;;;;;;4884223;28;20034;-52
2022/01/21 08:37:15;;;;;;;14.85;2.42;;;;;;;;;;4889363;28;20030;-52
2022/01/21 08:39:41;;;;;;;16.48;2.88;;;;;;;;;;4885368;28;20677;-53
2022/01/21 08:42:06;;;;;;;11.68;2.80;;;;;;;;;;4894017;28;20145;-52
2022/01/21 08:44:33;;;;;;;16.25;3.83;;;;;;;;;;4898225;28;20036;-53
2022/01/21 08:46:58;;;;;;;8.13;3.20;;;;;;;;;;4898913;28;21858;-54
2022/01/21 08:49:24;;;;;;;15.93;3.33;;;;;;;;;;4857837;28;21033;-53
2022/01/21 08:51:52;;;;;;;8.45;2.75;;;;;;;;;;4862155;28;20042;-52
2022/01/21 08:54:17;;;;;;;17.02;3.70;;;;;;;;;;4879174;28;20408;-54
2022/01/21 08:56:43;;;;;;;10.68;2.35;;;;;;;;;;4894376;28;20036;-53
2022/01/21 08:59:09;;;;;;;10.07;2.08;;;;;;;;;;4863508;28;20104;-53
2022/01/21 09:01:36;;;;;;;8.70;1.90;;;;;;;;;;4867537;28;20030;-54
2022/01/21 09:04:01;;;;;;;12.40;2.40;;;;;;;;;;4836112;28;20169;-53
2022/01/21 09:06:29;;;;;;;8.48;1.92;;;;;;;;;;4858328;28;20068;-50
2022/01/21 09:08:56;;;;;;;8.45;2.28;;;;;;;;;;4856543;28;21668;-52
2022/01/21 09:11:21;;;;;;;20.00;2.28;;;;;;;;;;4796827;28;20165;-51
2022/01/21 09:13:46;;;;;;;7.50;1.92;;;;;;;;;;4725150;28;20045;-55
2022/01/21 09:16:12;;;;;;;19.42;2.45;;;;;;;;;;4748725;28;20064;-52
2022/01/21 09:18:51;;;;;;;18.45;2.08;;;;;;;;;;4785906;28;21485;-51
2022/01/21 09:21:18;;;;;;;10.40;2.03;;;;;;;;;;4813156;28;21745;-51
2022/01/21 09:23:47;;;;;;;12.60;2.60;;;;;;;;;;4810477;28;20041;-51
2022/01/21 09:26:12;;;;;;;12.07;2.28;;;;;;;;;;4740423;28;20052;-53
2022/01/21 09:28:37;;;;;;;13.07;2.17;;;;;;;;;;4733449;28;20029;-51
2022/01/21 09:31:03;;;;;;;13.20;2.20;;;;;;;;;;4837236;28;21286;-51
2022/01/21 09:33:28;;;;;;;11.63;1.88;;;;;;;;;;4876882;28;20033;-53
2022/01/21 09:35:53;;;;;;;12.52;2.47;;;;;;;;;;4890346;28;20037;-50
2022/01/21 09:38:19;;;;;;;14.40;2.58;;;;;;;;;;4874279;28;20033;-50
2022/01/21 09:40:46;;;;;;;10.43;1.77;;;;;;;;;;4878345;28;20722;-54
2022/01/21 09:43:12;;;;;;;8.23;1.45;;;;;;;;;;4881912;28;20844;-51
2022/01/21 09:45:38;;;;;;;18.67;2.78;;;;;;;;;;4863248;28;20024;-51
2022/01/21 09:48:06;;;;;;;13.23;1.85;;;;;;;;;;4866763;28;20026;-53
2022/01/21 09:50:33;;;;;;;8.75;1.83;;;;;;;;;;4883507;28;20029;-54
2022/01/21 09:52:58;;;;;;;9.98;2.25;;;;;;;;;;4885732;28;20054;-49
2022/01/21 09:55:23;;;;;;;12.60;2.03;;;;;;;;;;4877242;28;20037;-53
2022/01/21 09:57:53;;;;;;;8.93;2.65;;;;;;;;;;4884272;28;20121;-52
2022/01/21 10:00:19;;;;;;;9.95;2.10;;;;;;;;;;4856795;28;20894;-52
2022/01/21 10:02:45;;;;;;;8.88;1.98;;;;;;;;;;4862761;28;20053;-50
2022/01/21 10:05:11;;;;;;;6.10;1.65;;;;;;;;;;4849547;28;22668;-50
2022/01/21 10:07:38;;;;;;;4.63;1.95;;;;;;;;;;4875374;28;20027;-51
2022/01/21 10:10:07;;;;;;;9.55;1.77;;;;;;;;;;4873588;28;20037;-51
2022/01/21 10:12:34;;;;;;;8.35;2.20;;;;;;;;;;4856162;28;20026;-50
2022/01/21 10:14:59;;;;;;;6.40;1.52;;;;;;;;;;4877231;28;20037;-52
2022/01/21 10:17:25;;;;;;;12.52;2.88;;;;;;;;;;4865616;28;21165;-53
2022/01/21 10:19:51;;;;;;;8.20;1.45;;;;;;;;;;4896546;28;20032;-53
2022/01/21 10:22:19;;;;;;;9.85;2.22;;;;;;;;;;4832841;28;20021;-53
2022/01/21 10:25:00;;;;;;;11.63;1.80;;;;;;;;;;4763919;28;20018;-53
2022/01/21 10:27:27;;;;;;;10.30;1.52;;;;;;;;;;4825250;28;20169;-53
2022/01/21 10:29:52;;;;;;;9.80;1.77;;;;;;;;;;4849249;28;20017;-52
2022/01/21 10:32:31;;;;;;;9.52;1.75;;;;;;;;;;4873759;28;20034;-53
2022/01/21 10:34:56;;;;;;;8.35;1.67;;;;;;;;;;4913375;28;20022;-52
2022/01/21 10:37:33;;;;;;;10.80;1.90;;;;;;;;;;4929879;28;20842;-53
2022/01/21 10:40:05;;;;;;;9.88;2.20;;;;;;;;;;4932664;28;20160;-53
2022/01/21 10:42:31;;;;;;;8.27;1.63;;;;;;;;;;4938167;28;20026;-53
2022/01/21 10:44:58;;;;;;;18.23;2.08;;;;;;;;;;4943483;28;20037;-52
2022/01/21 10:47:30;;;;;;;10.80;2.03;;;;;;;;;;4924365;28;20032;-51
2022/01/21 10:49:57;;;;;;;6.57;1.90;;;;;;;;;;4929985;28;20072;-50
2022/01/21 10:52:33;;;;;;;11.85;2.33;;;;;;;;;;4928556;28;20076;-52
2022/01/21 10:54:58;;;;;;;10.27;2.60;;;;;;;;;;4936110;28;20785;-50
2022/01/21 10:57:24;;;;;;;9.25;2.42;;;;;;;;;;4928784;28;20057;-54
2022/01/21 11:00:06;;;;;;;9.88;2.15;;;;;;;;;;4915588;28;23206;-52
2022/01/21 11:02:40;;;;;;;14.57;2.17;;;;;;;;;;4938121;28;22295;-50
2022/01/21 11:05:10;;;;;;;13.60;2.17;;;;;;;;;;4937314;23;20058;-53
2022/01/21 11:08:15;;;;;;;10.70;2.10;;;;;;;;;;4928182;28;20065;-53
2022/01/21 11:10:45;;;;;;;18.05;3.22;;;;;;;;;;4934295;28;23230;-53
2022/01/21 11:13:20;;;;;;;11.10;1.65;;;;;;;;;;4898486;28;20046;-51
2022/01/21 11:15:49;;;;;;;10.25;2.05;;;;;;;;;;4896100;28;20080;-52
2022/01/21 11:18:18;;;;;;;12.73;1.80;;;;;;;;;;4901041;28;20031;-50
2022/01/21 11:20:47;;;;;;;15.95;2.95;;;;;;;;;;4901024;28;20320;-49
2022/01/21 11:23:13;;;;;;;14.10;2.10;;;;;;;;;;4912329;28;20019;-51
2022/01/21 11:25:48;;;;;;;8.32;1.80;;;;;;;;;;4923669;28;20070;-52
2022/01/21 11:28:18;;;;;;;11.07;1.95;;;;;;;;;;4945309;28;20748;-52
2022/01/21 11:30:43;;;;;;;11.25;1.85;;;;;;;;;;4940315;28;20122;-49
2022/01/21 11:33:09;;;;;;;9.25;1.58;;;;;;;;;;4939161;28;20041;-49
2022/01/21 11:35:34;;;;;;;9.63;1.48;;;;;;;;;;4929396;28;20118;-50
2022/01/21 11:38:04;;;;;;;9.35;2.00;;;;;;;;;;4928909;28;20059;-50
2022/01/21 11:40:29;;;;;;;8.57;1.60;;;;;;;;;;4936641;28;20078;-50
2022/01/21 11:42:57;;;;;;;5.88;1.75;;;;;;;;;;4937919;28;20041;-49
2022/01/21 11:48:49;;;;;;;8.65;1.55;;;;;;;;;;4953306;28;20031;-49
2022/01/21 11:50:50;;;;;;;10.50;1.45;;;;;;;;;;4953361;28;20129;-50
2022/01/21 11:53:35;;;;;;;8.77;1.80;;;;;;;;;;4944072;28;20146;-52
2022/01/21 11:56:00;;;;;;;13.07;1.90;;;;;;;;;;4948051;28;20145;-49
2022/01/21 11:58:26;;;;;;;3.20;1.20;;;;;;;;;;4950607;28;20546;-49
2022/01/21 12:00:52;;;;;;;6.72;1.30;;;;;;;;;;4939422;28;20366;-49
2022/01/21 12:03:21;;;;;;;7.88;1.50;;;;;;;;;;4937897;28;20019;-49
2022/01/21 12:05:46;;;;;;;14.77;2.35;;;;;;;;;;4942670;28;20471;-50
2022/01/21 12:08:11;;;;;;;8.18;1.80;;;;;;;;;;4948316;28;20134;-52
2022/01/21 12:10:38;;;;;;;16.48;1.92;;;;;;;;;;4950663;28;20023;-50
2022/01/21 12:13:06;;;;;;;9.80;1.75;;;;;;;;;;4953583;28;20774;-49
2022/01/21 12:15:44;;;;;;;13.98;2.17;;;;;;;;;;4954484;28;20102;-52
2022/01/21 12:20:50;;;;;;;7.22;1.83;;;;;;;;;;4956209;28;20035;-54
2022/01/21 12:23:22;;;;;;;11.65;2.88;;;;;;;;;;4953179;28;20050;-51
2022/01/21 12:26:06;;;;;;;10.48;1.95;;;;;;;;;;4953341;28;20057;-54
2022/01/21 12:28:31;;;;;;;11.80;2.78;;;;;;;;;;4950649;28;20035;-51
2022/01/21 12:30:59;;;;;;;11.20;2.33;;;;;;;;;;4951633;28;20034;-51
2022/01/21 12:33:48;;;;;;;7.90;1.65;;;;;;;;;;4953429;28;20061;-53
2022/01/21 12:36:14;;;;;;;16.95;2.28;;;;;;;;;;4934082;28;20181;-51
2022/01/21 12:41:18;;;;;;;9.77;1.73;;;;;;;;;;4935354;28;20046;-50
2022/01/21 12:43:46;;;;;;;12.68;2.30;;;;;;;;;;4951012;28;20030;-51
2022/01/21 12:46:34;;;;;;;19.63;2.53;;;;;;;;;;4944603;28;20666;-51
2022/01/21 12:49:00;;;;;;;15.93;2.40;;;;;;;;;;4945251;28;20035;-50
2022/01/21 12:56:45;;;;;;;18.35;2.95;;;;;;;;;;4972588;28;20050;-52
2022/01/21 12:59:15;;;;;;;12.30;2.53;;;;;;;;;;4969279;28;20034;-51
2022/01/21 13:01:42;;;;;;;16.98;2.70;;;;;;;;;;4970554;28;20026;-51
2022/01/21 13:04:13;;;;;;;20.35;3.45;;;;;;;;;;4969149;28;20465;-53
2022/01/21 13:06:52;;;;;;;15.57;2.95;;;;;;;;;;4967059;28;20034;-52
2022/01/21 13:09:21;;;;;;;15.20;2.60;;;;;;;;;;4970893;28;20030;-51
2022/01/21 13:11:58;;;;;;;19.73;3.95;;;;;;;;;;4967006;28;20053;-51
2022/01/21 13:14:34;;;;;;;;;;;;;;;;;;;;;
2022/01/21 13:17:00;;;;;;;16.75;3.28;;;;;;;;;;4967130;28;20043;-51
2022/01/21 13:19:25;;;;;;;25.02;4.00;;;;;;;;;;4963469;28;20058;-53
2022/01/21 13:21:52;;;;;;;17.25;3.78;;;;;;;;;;4970478;28;20489;-50
2022/01/21 13:24:27;;;;;;;26.27;3.72;;;;;;;;;;4966504;28;20541;-50
2022/01/21 13:26:53;;;;;;;18.10;2.88;;;;;;;;;;4967117;28;20023;-54
2022/01/21 13:29:26;;;;;;;19.42;2.97;;;;;;;;;;4964099;28;20113;-50
2022/01/21 13:31:53;;;;;;;15.77;3.00;;;;;;;;;;4969155;28;20023;-52
2022/01/21 13:34:42;;;;;;;23.65;3.25;;;;;;;;;;4969864;28;20134;-53
2022/01/21 13:37:09;;;;;;;21.42;3.70;;;;;;;;;;4928326;28;20030;-50
2022/01/21 13:39:36;;;;;;;18.00;3.17;;;;;;;;;;4969701;28;20034;-51
2022/01/21 13:42:06;;;;;;;16.92;2.45;;;;;;;;;;4971763;28;20034;-51
2022/01/21 13:44:50;;;;;;;13.68;3.03;;;;;;;;;;4971267;28;20021;-54
2022/01/21 13:47:28;;;;;;;14.23;2.47;;;;;;;;;;4968510;28;20047;-51
2022/01/21 13:49:55;;;;;;;12.90;3.08;;;;;;;;;;4969017;28;20018;-51
2022/01/21 13:52:32;;;;;;;11.82;2.10;;;;;;;;;;4966280;28;20034;-53
2022/01/21 13:54:57;;;;;;;4.80;1.48;;;;;;;;;;4968653;28;20026;-52
2022/01/21 13:57:27;;;;;;;7.90;1.88;;;;;;;;;;4968534;28;20477;-53
2022/01/21 13:59:52;;;;;;;11.80;2.22;;;;;;;;;;4972554;28;20023;-50
2022/01/21 14:02:17;;;;;;;16.42;2.90;;;;;;;;;;4976124;28;20039;-50
2022/01/21 14:05:00;;;;;;;14.40;2.35;;;;;;;;;;4970645;28;20129;-51
2022/01/21 14:07:30;;;;;;;13.63;2.97;;;;;;;;;;4973496;28;20117;-53
2022/01/21 14:09:56;;;;;;;13.15;2.95;;;;;;;;;;4974847;28;20035;-53
2022/01/21 14:12:21;;;;;;;14.85;3.47;;;;;;;;;;4972107;28;20494;-53
2022/01/21 14:14:48;;;;;;;12.48;2.80;;;;;;;;;;4975043;28;20019;-50
2022/01/21 14:17:13;;;;;;;17.63;3.40;;;;;;;;;;4954630;28;20125;-52
2022/01/21 14:19:40;;;;;;;20.90;3.28;;;;;;;;;;4977247;28;20114;-51
2022/01/21 14:22:08;;;;;;;14.20;2.88;;;;;;;;;;4974958;28;20078;-53
2022/01/21 14:24:43;;;;;;;16.92;2.88;;;;;;;;;;4976681;28;20054;-51
2022/01/21 14:27:16;;;;;;;18.00;3.40;;;;;;;;;;4981556;28;20065;-50
2022/01/21 14:29:42;;;;;;;16.30;3.08;;;;;;;;;;4969114;28;20015;-53
2022/01/21 14:32:17;;;;;;;16.90;3.30;;;;;;;;;;4987151;28;20018;-53
2022/01/21 14:34:44;;;;;;;19.65;2.80;;;;;;;;;;4977572;28;20022;-50
2022/01/21 14:37:11;;;;;;;17.48;3.22;;;;;;;;;;4977054;28;20023;-51
2022/01/21 14:39:47;;;;;;;16.70;3.05;;;;;;;;;;4974381;28;20027;-53
2022/01/21 14:42:22;;;;;;;23.63;3.30;;;;;;;;;;4970678;28;20019;-52
2022/01/21 14:44:49;;;;;;;17.02;3.20;;;;;;;;;;4974430;28;20114;-51
2022/01/21 14:47:22;;;;;;;19.90;2.85;;;;;;;;;;4984056;28;20090;-49
2022/01/21 14:49:49;;;;;;;15.45;4.00;;;;;;;;;;4977155;28;20347;-50
2022/01/21 14:54:50;;;;;;;11.23;2.70;;;;;;;;;;4972506;28;20031;-50
2022/01/21 14:57:15;;;;;;;22.00;3.97;;;;;;;;;;4974545;28;20027;-50
2022/01/21 14:59:51;;;;;;;12.90;2.65;;;;;;;;;;4973970;28;20057;-50
2022/01/21 15:02:16;;;;;;;17.77;3.05;;;;;;;;;;4972327;28;20518;-48
2022/01/21 15:04:51;;;;;;;12.60;2.47;;;;;;;;;;4971781;28;20058;-47
2022/01/21 15:07:23;;;;;;;17.10;2.65;;;;;;;;;;4971776;28;20015;-47
2022/01/21 15:09:50;;;;;;;15.02;2.40;;;;;;;;;;4970598;28;20039;-48
2022/01/21 15:15:11;;;;;;;21.48;3.33;;;;;;;;;;4973431;28;20041;-49
2022/01/21 15:17:36;;;;;;;17.60;2.60;;;;;;;;;;4975731;28;20030;-48
2022/01/21 15:20:02;;;;;;;15.80;2.63;;;;;;;;;;4973345;28;20025;-48
2022/01/21 15:22:27;;;;;;;9.70;2.00;;;;;;;;;;4975709;28;20087;-48
2022/01/21 15:24:54;;;;;;;14.60;2.10;;;;;;;;;;4977174;28;20023;-48
2022/01/21 15:27:20;;;;;;;13.95;2.28;;;;;;;;;;4978853;28;20358;-47
2022/01/21 15:29:45;;;;;;;11.85;2.20;;;;;;;;;;4978668;28;20497;-48
2022/01/21 15:32:11;;;;;;;13.10;2.33;;;;;;;;;;4979237;28;20478;-49
2022/01/21 15:34:37;;;;;;;13.23;2.08;;;;;;;;;;4979067;28;20030;-51
2022/01/21 15:37:02;;;;;;;12.75;2.28;;;;;;;;;;4982181;28;20097;-49
2022/01/21 15:39:28;;;;;;;8.32;2.33;;;;;;;;;;4992571;28;20030;-48
2022/01/21 15:41:53;;;;;;;21.13;2.80;;;;;;;;;;4986280;28;20069;-49
2022/01/21 15:44:18;;;;;;;18.10;3.67;;;;;;;;;;4984587;28;20054;-48